sensor_id;sensor_type;location;lat;lon;timestamp;P1;durP1;ratioP1;P2;durP2;ratioP2
13807;SDS011;40769;51.512;5.494;2022-11-25T00:02:15;3.53;;;1.70;;
13807;SDS011;40769;51.512;5.494;2022-11-25T00:04:41;3.63;;;1.80;;
13807;SDS011;40769;51.512;5.494;2022-11-25T00:07:06;4.97;;;2.28;;
13807;SDS011;40769;51.512;5.494;2022-11-25T00:09:32;2.42;;;1.27;;
13807;SDS011;40769;51.512;5.494;2022-11-25T00:11:57;3.40;;;1.50;;
13807;SDS011;40769;51.512;5.494;2022-11-25T00:14:23;5.38;;;2.10;;
13807;SDS011;40769;51.512;5.494;2022-11-25T00:16:49;5.93;;;2.28;;
13807;SDS011;40769;51.512;5.494;2022-11-25T00:19:14;4.22;;;2.10;;
13807;SDS011;40769;51.512;5.494;2022-11-25T00:21:41;5.90;;;1.98;;
13807;SDS011;40769;51.512;5.494;2022-11-25T00:24:07;3.47;;;1.60;;
13807;SDS011;40769;51.512;5.494;2022-11-25T00:26:33;3.60;;;1.80;;
13807;SDS011;40769;51.512;5.494;2022-11-25T00:29:00;4.53;;;1.85;;
13807;SDS011;40769;51.512;5.494;2022-11-25T00:31:30;5.22;;;2.25;;
13807;SDS011;40769;51.512;5.494;2022-11-25T00:33:57;6.35;;;2.35;;
13807;SDS011;40769;51.512;5.494;2022-11-25T00:36:25;5.00;;;2.22;;
13807;SDS011;40769;51.512;5.494;2022-11-25T00:38:53;6.03;;;1.95;;
13807;SDS011;40769;51.512;5.494;2022-11-25T00:41:19;3.92;;;1.67;;
13807;SDS011;40769;51.512;5.494;2022-11-25T00:44:04;4.13;;;1.73;;
13807;SDS011;40769;51.512;5.494;2022-11-25T00:46:48;4.65;;;1.70;;
13807;SDS011;40769;51.512;5.494;2022-11-25T00:49:13;5.57;;;1.83;;
13807;SDS011;40769;51.512;5.494;2022-11-25T00:51:39;4.30;;;1.65;;
13807;SDS011;40769;51.512;5.494;2022-11-25T00:54:11;5.57;;;1.90;;
13807;SDS011;40769;51.512;5.494;2022-11-25T00:56:37;4.93;;;2.22;;
13807;SDS011;40769;51.512;5.494;2022-11-25T00:59:03;4.05;;;1.90;;
13807;SDS011;40769;51.512;5.494;2022-11-25T01:01:28;3.33;;;1.50;;
13807;SDS011;40769;51.512;5.494;2022-11-25T01:03:54;6.63;;;1.90;;
13807;SDS011;40769;51.512;5.494;2022-11-25T01:06:20;3.00;;;1.77;;
13807;SDS011;40769;51.512;5.494;2022-11-25T01:08:46;4.78;;;1.75;;
13807;SDS011;40769;51.512;5.494;2022-11-25T01:11:13;4.63;;;1.40;;
13807;SDS011;40769;51.512;5.494;2022-11-25T01:13:43;4.65;;;1.83;;
13807;SDS011;40769;51.512;5.494;2022-11-25T01:16:10;2.20;;;1.10;;
13807;SDS011;40769;51.512;5.494;2022-11-25T01:18:38;6.85;;;2.15;;
13807;SDS011;40769;51.512;5.494;2022-11-25T01:21:22;3.03;;;1.80;;
13807;SDS011;40769;51.512;5.494;2022-11-25T01:23:51;2.72;;;1.58;;
13807;SDS011;40769;51.512;5.494;2022-11-25T01:26:17;5.65;;;2.08;;
13807;SDS011;40769;51.512;5.494;2022-11-25T01:28:45;4.90;;;2.08;;
13807;SDS011;40769;51.512;5.494;2022-11-25T01:31:16;3.30;;;1.48;;
13807;SDS011;40769;51.512;5.494;2022-11-25T01:33:43;4.00;;;2.00;;
13807;SDS011;40769;51.512;5.494;2022-11-25T01:36:11;3.88;;;2.13;;
13807;SDS011;40769;51.512;5.494;2022-11-25T01:38:39;4.40;;;1.70;;
13807;SDS011;40769;51.512;5.494;2022-11-25T01:41:05;4.60;;;1.70;;
13807;SDS011;40769;51.512;5.494;2022-11-25T01:43:32;5.82;;;2.00;;
13807;SDS011;40769;51.512;5.494;2022-11-25T01:51:29;4.47;;;2.00;;
13807;SDS011;40769;51.512;5.494;2022-11-25T01:53:58;5.88;;;2.25;;
13807;SDS011;40769;51.512;5.494;2022-11-25T01:56:27;2.70;;;1.58;;
13807;SDS011;40769;51.512;5.494;2022-11-25T01:58:57;5.35;;;2.30;;
13807;SDS011;40769;51.512;5.494;2022-11-25T02:01:23;6.85;;;2.40;;
13807;SDS011;40769;51.512;5.494;2022-11-25T02:03:49;4.70;;;2.17;;
13807;SDS011;40769;51.512;5.494;2022-11-25T02:06:20;4.00;;;1.92;;
13807;SDS011;40769;51.512;5.494;2022-11-25T02:08:50;3.80;;;2.00;;
13807;SDS011;40769;51.512;5.494;2022-11-25T02:11:17;8.23;;;2.55;;
13807;SDS011;40769;51.512;5.494;2022-11-25T02:13:44;4.95;;;2.30;;
13807;SDS011;40769;51.512;5.494;2022-11-25T02:16:12;5.93;;;2.20;;
13807;SDS011;40769;51.512;5.494;2022-11-25T02:18:38;5.80;;;1.90;;
13807;SDS011;40769;51.512;5.494;2022-11-25T02:21:04;4.97;;;2.15;;
13807;SDS011;40769;51.512;5.494;2022-11-25T02:23:41;6.93;;;2.40;;
13807;SDS011;40769;51.512;5.494;2022-11-25T02:26:21;4.75;;;1.77;;
13807;SDS011;40769;51.512;5.494;2022-11-25T02:28:47;4.97;;;1.80;;
13807;SDS011;40769;51.512;5.494;2022-11-25T02:31:18;4.93;;;1.70;;
13807;SDS011;40769;51.512;5.494;2022-11-25T02:33:44;5.22;;;2.10;;
13807;SDS011;40769;51.512;5.494;2022-11-25T02:36:17;6.43;;;2.00;;
13807;SDS011;40769;51.512;5.494;2022-11-25T02:43:43;3.92;;;2.10;;
13807;SDS011;40769;51.512;5.494;2022-11-25T02:46:13;5.07;;;2.17;;
13807;SDS011;40769;51.512;5.494;2022-11-25T02:48:40;5.53;;;1.60;;
13807;SDS011;40769;51.512;5.494;2022-11-25T02:51:08;5.55;;;2.05;;
13807;SDS011;40769;51.512;5.494;2022-11-25T02:53:35;4.88;;;2.10;;
13807;SDS011;40769;51.512;5.494;2022-11-25T02:56:01;3.97;;;1.70;;
13807;SDS011;40769;51.512;5.494;2022-11-25T02:58:27;5.45;;;1.75;;
13807;SDS011;40769;51.512;5.494;2022-11-25T03:00:52;3.95;;;1.65;;
13807;SDS011;40769;51.512;5.494;2022-11-25T03:03:18;5.53;;;1.90;;
13807;SDS011;40769;51.512;5.494;2022-11-25T03:05:43;5.65;;;1.83;;
13807;SDS011;40769;51.512;5.494;2022-11-25T03:08:09;2.38;;;1.35;;
13807;SDS011;40769;51.512;5.494;2022-11-25T03:10:35;4.85;;;1.85;;
13807;SDS011;40769;51.512;5.494;2022-11-25T03:13:01;3.70;;;1.38;;
13807;SDS011;40769;51.512;5.494;2022-11-25T03:15:27;2.85;;;1.30;;
13807;SDS011;40769;51.512;5.494;2022-11-25T03:17:53;3.70;;;1.23;;
13807;SDS011;40769;51.512;5.494;2022-11-25T03:20:19;3.47;;;1.70;;
13807;SDS011;40769;51.512;5.494;2022-11-25T03:22:44;2.85;;;1.60;;
13807;SDS011;40769;51.512;5.494;2022-11-25T03:25:11;1.80;;;0.90;;
13807;SDS011;40769;51.512;5.494;2022-11-25T03:27:37;2.17;;;1.15;;
13807;SDS011;40769;51.512;5.494;2022-11-25T03:30:05;2.28;;;1.17;;
13807;SDS011;40769;51.512;5.494;2022-11-25T03:32:34;1.77;;;0.88;;
13807;SDS011;40769;51.512;5.494;2022-11-25T03:34:59;2.83;;;1.00;;
13807;SDS011;40769;51.512;5.494;2022-11-25T03:37:25;5.70;;;1.30;;
13807;SDS011;40769;51.512;5.494;2022-11-25T03:39:51;1.98;;;1.00;;
13807;SDS011;40769;51.512;5.494;2022-11-25T03:42:16;3.53;;;1.25;;
13807;SDS011;40769;51.512;5.494;2022-11-25T03:44:42;2.30;;;1.30;;
13807;SDS011;40769;51.512;5.494;2022-11-25T03:47:07;2.50;;;1.10;;
13807;SDS011;40769;51.512;5.494;2022-11-25T03:49:33;2.45;;;1.05;;
13807;SDS011;40769;51.512;5.494;2022-11-25T03:51:59;2.40;;;1.20;;
13807;SDS011;40769;51.512;5.494;2022-11-25T03:54:25;2.65;;;1.30;;
13807;SDS011;40769;51.512;5.494;2022-11-25T03:56:50;1.35;;;0.98;;
13807;SDS011;40769;51.512;5.494;2022-11-25T03:59:16;1.15;;;0.68;;
13807;SDS011;40769;51.512;5.494;2022-11-25T04:01:42;2.13;;;0.95;;
13807;SDS011;40769;51.512;5.494;2022-11-25T04:04:07;2.63;;;1.20;;
13807;SDS011;40769;51.512;5.494;2022-11-25T04:06:33;2.00;;;1.10;;
13807;SDS011;40769;51.512;5.494;2022-11-25T04:08:58;1.60;;;0.98;;
13807;SDS011;40769;51.512;5.494;2022-11-25T04:11:24;1.98;;;1.10;;
13807;SDS011;40769;51.512;5.494;2022-11-25T04:14:10;1.73;;;0.90;;
13807;SDS011;40769;51.512;5.494;2022-11-25T04:16:35;1.20;;;0.73;;
13807;SDS011;40769;51.512;5.494;2022-11-25T04:19:01;2.45;;;0.88;;
13807;SDS011;40769;51.512;5.494;2022-11-25T04:21:27;1.95;;;1.02;;
13807;SDS011;40769;51.512;5.494;2022-11-25T04:23:59;1.67;;;0.80;;
13807;SDS011;40769;51.512;5.494;2022-11-25T04:26:25;0.82;;;0.65;;
13807;SDS011;40769;51.512;5.494;2022-11-25T04:28:50;1.88;;;1.00;;
13807;SDS011;40769;51.512;5.494;2022-11-25T04:31:16;1.23;;;0.70;;
13807;SDS011;40769;51.512;5.494;2022-11-25T04:33:41;2.40;;;1.00;;
13807;SDS011;40769;51.512;5.494;2022-11-25T04:36:07;1.63;;;0.80;;
13807;SDS011;40769;51.512;5.494;2022-11-25T04:38:33;2.20;;;0.90;;
13807;SDS011;40769;51.512;5.494;2022-11-25T04:40:59;1.10;;;0.68;;
13807;SDS011;40769;51.512;5.494;2022-11-25T04:43:24;2.08;;;1.17;;
13807;SDS011;40769;51.512;5.494;2022-11-25T04:45:50;1.73;;;0.90;;
13807;SDS011;40769;51.512;5.494;2022-11-25T04:48:17;2.00;;;0.85;;
13807;SDS011;40769;51.512;5.494;2022-11-25T04:50:43;1.85;;;0.98;;
13807;SDS011;40769;51.512;5.494;2022-11-25T04:53:09;1.40;;;0.70;;
13807;SDS011;40769;51.512;5.494;2022-11-25T04:55:34;1.45;;;0.80;;
13807;SDS011;40769;51.512;5.494;2022-11-25T04:58:00;1.48;;;0.75;;
13807;SDS011;40769;51.512;5.494;2022-11-25T05:00:26;2.15;;;0.90;;
13807;SDS011;40769;51.512;5.494;2022-11-25T05:02:51;1.95;;;0.93;;
13807;SDS011;40769;51.512;5.494;2022-11-25T05:05:17;2.20;;;0.80;;
13807;SDS011;40769;51.512;5.494;2022-11-25T05:07:43;1.33;;;0.77;;
13807;SDS011;40769;51.512;5.494;2022-11-25T05:10:09;1.33;;;0.70;;
13807;SDS011;40769;51.512;5.494;2022-11-25T05:12:35;0.80;;;0.68;;
13807;SDS011;40769;51.512;5.494;2022-11-25T05:15:01;2.38;;;0.98;;
13807;SDS011;40769;51.512;5.494;2022-11-25T05:17:29;2.10;;;0.82;;
13807;SDS011;40769;51.512;5.494;2022-11-25T05:19:55;1.08;;;0.60;;
13807;SDS011;40769;51.512;5.494;2022-11-25T05:22:29;1.00;;;0.80;;
13807;SDS011;40769;51.512;5.494;2022-11-25T05:24:56;1.77;;;0.77;;
13807;SDS011;40769;51.512;5.494;2022-11-25T05:27:22;1.27;;;0.73;;
13807;SDS011;40769;51.512;5.494;2022-11-25T05:29:48;1.17;;;0.65;;
13807;SDS011;40769;51.512;5.494;2022-11-25T05:32:14;1.55;;;0.75;;
13807;SDS011;40769;51.512;5.494;2022-11-25T05:34:40;1.58;;;0.70;;
13807;SDS011;40769;51.512;5.494;2022-11-25T05:37:06;1.27;;;0.70;;
13807;SDS011;40769;51.512;5.494;2022-11-25T05:39:33;2.30;;;0.70;;
13807;SDS011;40769;51.512;5.494;2022-11-25T05:41:58;2.35;;;1.10;;
13807;SDS011;40769;51.512;5.494;2022-11-25T05:44:24;0.80;;;0.68;;
13807;SDS011;40769;51.512;5.494;2022-11-25T05:46:50;3.20;;;1.00;;
13807;SDS011;40769;51.512;5.494;2022-11-25T05:49:16;2.33;;;1.10;;
13807;SDS011;40769;51.512;5.494;2022-11-25T05:51:43;2.85;;;0.98;;
13807;SDS011;40769;51.512;5.494;2022-11-25T05:54:08;1.23;;;0.60;;
13807;SDS011;40769;51.512;5.494;2022-11-25T05:56:34;1.42;;;0.75;;
13807;SDS011;40769;51.512;5.494;2022-11-25T05:59:00;1.30;;;0.70;;
13807;SDS011;40769;51.512;5.494;2022-11-25T06:01:27;2.45;;;0.95;;
13807;SDS011;40769;51.512;5.494;2022-11-25T06:03:52;1.60;;;0.90;;
13807;SDS011;40769;51.512;5.494;2022-11-25T06:06:18;2.05;;;0.90;;
13807;SDS011;40769;51.512;5.494;2022-11-25T06:08:44;1.05;;;0.80;;
13807;SDS011;40769;51.512;5.494;2022-11-25T06:11:10;1.50;;;0.80;;
13807;SDS011;40769;51.512;5.494;2022-11-25T06:13:38;1.80;;;0.90;;
13807;SDS011;40769;51.512;5.494;2022-11-25T06:16:05;1.27;;;0.70;;
13807;SDS011;40769;51.512;5.494;2022-11-25T06:18:36;1.80;;;1.20;;
13807;SDS011;40769;51.512;5.494;2022-11-25T06:21:02;2.33;;;1.00;;
13807;SDS011;40769;51.512;5.494;2022-11-25T06:23:29;1.77;;;1.02;;
13807;SDS011;40769;51.512;5.494;2022-11-25T06:26:02;2.25;;;0.93;;
13807;SDS011;40769;51.512;5.494;2022-11-25T06:28:31;1.90;;;1.30;;
13807;SDS011;40769;51.512;5.494;2022-11-25T06:31:02;2.80;;;1.45;;
13807;SDS011;40769;51.512;5.494;2022-11-25T06:33:32;3.10;;;1.48;;
13807;SDS011;40769;51.512;5.494;2022-11-25T06:35:58;2.70;;;1.48;;
13807;SDS011;40769;51.512;5.494;2022-11-25T06:38:29;2.08;;;1.30;;
13807;SDS011;40769;51.512;5.494;2022-11-25T06:40:58;2.70;;;1.60;;
13807;SDS011;40769;51.512;5.494;2022-11-25T06:43:24;2.28;;;1.50;;
13807;SDS011;40769;51.512;5.494;2022-11-25T06:45:50;3.22;;;1.40;;
13807;SDS011;40769;51.512;5.494;2022-11-25T06:48:15;1.75;;;1.20;;
13807;SDS011;40769;51.512;5.494;2022-11-25T06:50:41;3.97;;;1.85;;
13807;SDS011;40769;51.512;5.494;2022-11-25T06:53:06;2.30;;;1.42;;
13807;SDS011;40769;51.512;5.494;2022-11-25T06:55:32;2.55;;;1.63;;
13807;SDS011;40769;51.512;5.494;2022-11-25T06:57:58;2.42;;;1.42;;
13807;SDS011;40769;51.512;5.494;2022-11-25T07:00:24;2.75;;;1.55;;
13807;SDS011;40769;51.512;5.494;2022-11-25T07:02:50;3.40;;;1.67;;
13807;SDS011;40769;51.512;5.494;2022-11-25T07:05:16;3.08;;;1.50;;
13807;SDS011;40769;51.512;5.494;2022-11-25T07:07:41;3.58;;;1.85;;
13807;SDS011;40769;51.512;5.494;2022-11-25T07:10:07;5.00;;;2.20;;
13807;SDS011;40769;51.512;5.494;2022-11-25T07:12:33;3.45;;;2.30;;
13807;SDS011;40769;51.512;5.494;2022-11-25T07:14:59;3.85;;;2.20;;
13807;SDS011;40769;51.512;5.494;2022-11-25T07:17:24;3.45;;;2.50;;
13807;SDS011;40769;51.512;5.494;2022-11-25T07:19:50;3.00;;;1.73;;
13807;SDS011;40769;51.512;5.494;2022-11-25T07:22:15;2.40;;;1.77;;
13807;SDS011;40769;51.512;5.494;2022-11-25T07:24:41;3.40;;;2.25;;
13807;SDS011;40769;51.512;5.494;2022-11-25T07:27:06;3.42;;;2.40;;
13807;SDS011;40769;51.512;5.494;2022-11-25T07:29:32;3.22;;;2.20;;
13807;SDS011;40769;51.512;5.494;2022-11-25T07:31:59;4.30;;;2.30;;
13807;SDS011;40769;51.512;5.494;2022-11-25T07:34:25;3.30;;;1.98;;
13807;SDS011;40769;51.512;5.494;2022-11-25T07:36:50;3.97;;;1.98;;
13807;SDS011;40769;51.512;5.494;2022-11-25T07:39:18;3.92;;;2.08;;
13807;SDS011;40769;51.512;5.494;2022-11-25T07:41:45;3.00;;;2.15;;
13807;SDS011;40769;51.512;5.494;2022-11-25T07:44:13;3.95;;;2.50;;
13807;SDS011;40769;51.512;5.494;2022-11-25T07:46:39;2.88;;;2.42;;
13807;SDS011;40769;51.512;5.494;2022-11-25T07:49:10;4.10;;;2.63;;
13807;SDS011;40769;51.512;5.494;2022-11-25T07:51:38;4.68;;;2.38;;
13807;SDS011;40769;51.512;5.494;2022-11-25T07:54:10;3.58;;;2.30;;
13807;SDS011;40769;51.512;5.494;2022-11-25T07:56:37;4.25;;;2.40;;
13807;SDS011;40769;51.512;5.494;2022-11-25T07:59:05;3.10;;;1.98;;
13807;SDS011;40769;51.512;5.494;2022-11-25T08:01:32;4.00;;;2.30;;
13807;SDS011;40769;51.512;5.494;2022-11-25T08:03:58;3.60;;;2.42;;
13807;SDS011;40769;51.512;5.494;2022-11-25T08:06:25;3.35;;;2.20;;
13807;SDS011;40769;51.512;5.494;2022-11-25T08:08:53;2.83;;;2.05;;
13807;SDS011;40769;51.512;5.494;2022-11-25T08:11:27;2.20;;;1.63;;
13807;SDS011;40769;51.512;5.494;2022-11-25T08:13:55;2.55;;;1.75;;
13807;SDS011;40769;51.512;5.494;2022-11-25T08:16:23;4.00;;;2.08;;
13807;SDS011;40769;51.512;5.494;2022-11-25T08:18:52;2.53;;;1.60;;
13807;SDS011;40769;51.512;5.494;2022-11-25T08:21:27;2.65;;;1.75;;
13807;SDS011;40769;51.512;5.494;2022-11-25T08:23:54;3.78;;;2.13;;
13807;SDS011;40769;51.512;5.494;2022-11-25T08:26:21;2.42;;;1.70;;
13807;SDS011;40769;51.512;5.494;2022-11-25T08:28:49;4.70;;;2.20;;
13807;SDS011;40769;51.512;5.494;2022-11-25T08:31:17;3.90;;;2.30;;
13807;SDS011;40769;51.512;5.494;2022-11-25T08:33:44;2.95;;;2.00;;
13807;SDS011;40769;51.512;5.494;2022-11-25T08:36:10;2.80;;;1.85;;
13807;SDS011;40769;51.512;5.494;2022-11-25T08:38:37;2.33;;;1.77;;
13807;SDS011;40769;51.512;5.494;2022-11-25T08:41:14;2.80;;;1.95;;
13807;SDS011;40769;51.512;5.494;2022-11-25T08:43:42;4.75;;;1.75;;
13807;SDS011;40769;51.512;5.494;2022-11-25T08:46:09;2.78;;;1.85;;
13807;SDS011;40769;51.512;5.494;2022-11-25T08:48:37;2.75;;;1.70;;
13807;SDS011;40769;51.512;5.494;2022-11-25T08:51:06;3.38;;;1.90;;
13807;SDS011;40769;51.512;5.494;2022-11-25T08:53:35;3.55;;;1.85;;
13807;SDS011;40769;51.512;5.494;2022-11-25T08:56:02;2.78;;;1.92;;
13807;SDS011;40769;51.512;5.494;2022-11-25T08:58:28;2.40;;;1.70;;
13807;SDS011;40769;51.512;5.494;2022-11-25T09:00:54;3.58;;;1.98;;
13807;SDS011;40769;51.512;5.494;2022-11-25T09:03:19;3.67;;;2.10;;
13807;SDS011;40769;51.512;5.494;2022-11-25T09:05:45;3.95;;;2.00;;
13807;SDS011;40769;51.512;5.494;2022-11-25T09:08:11;3.45;;;2.25;;
13807;SDS011;40769;51.512;5.494;2022-11-25T09:10:37;4.63;;;2.20;;
13807;SDS011;40769;51.512;5.494;2022-11-25T09:13:03;3.25;;;1.90;;
13807;SDS011;40769;51.512;5.494;2022-11-25T09:15:30;3.28;;;2.08;;
13807;SDS011;40769;51.512;5.494;2022-11-25T09:17:59;4.07;;;1.95;;
13807;SDS011;40769;51.512;5.494;2022-11-25T09:20:30;2.53;;;1.85;;
13807;SDS011;40769;51.512;5.494;2022-11-25T09:23:00;2.83;;;1.80;;
13807;SDS011;40769;51.512;5.494;2022-11-25T09:25:26;3.50;;;1.92;;
13807;SDS011;40769;51.512;5.494;2022-11-25T09:27:53;3.20;;;1.77;;
13807;SDS011;40769;51.512;5.494;2022-11-25T09:30:19;3.67;;;1.85;;
13807;SDS011;40769;51.512;5.494;2022-11-25T09:32:47;2.40;;;1.70;;
13807;SDS011;40769;51.512;5.494;2022-11-25T09:35:13;2.67;;;1.40;;
13807;SDS011;40769;51.512;5.494;2022-11-25T09:37:39;3.40;;;1.65;;
13807;SDS011;40769;51.512;5.494;2022-11-25T09:40:23;3.38;;;1.73;;
13807;SDS011;40769;51.512;5.494;2022-11-25T09:43:07;2.92;;;1.70;;
13807;SDS011;40769;51.512;5.494;2022-11-25T10:00:12;3.42;;;2.17;;
13807;SDS011;40769;51.512;5.494;2022-11-25T10:05:30;5.85;;;2.40;;
13807;SDS011;40769;51.512;5.494;2022-11-25T10:08:22;5.68;;;2.00;;
13807;SDS011;40769;51.512;5.494;2022-11-25T10:10:50;4.03;;;2.15;;
13807;SDS011;40769;51.512;5.494;2022-11-25T10:19:00;3.15;;;1.98;;
13807;SDS011;40769;51.512;5.494;2022-11-25T10:21:46;5.85;;;2.08;;
13807;SDS011;40769;51.512;5.494;2022-11-25T10:24:13;3.35;;;2.00;;
13807;SDS011;40769;51.512;5.494;2022-11-25T10:26:42;4.25;;;1.92;;
13807;SDS011;40769;51.512;5.494;2022-11-25T10:31:38;2.53;;;1.50;;
13807;SDS011;40769;51.512;5.494;2022-11-25T10:37:01;4.80;;;2.20;;
13807;SDS011;40769;51.512;5.494;2022-11-25T10:39:30;6.22;;;2.08;;
13807;SDS011;40769;51.512;5.494;2022-11-25T10:47:11;3.83;;;1.95;;
13807;SDS011;40769;51.512;5.494;2022-11-25T10:49:50;5.03;;;2.72;;
13807;SDS011;40769;51.512;5.494;2022-11-25T10:55:29;4.15;;;2.08;;
13807;SDS011;40769;51.512;5.494;2022-11-25T10:57:57;3.28;;;2.13;;
13807;SDS011;40769;51.512;5.494;2022-11-25T11:00:25;5.15;;;2.30;;
13807;SDS011;40769;51.512;5.494;2022-11-25T11:02:55;5.78;;;2.33;;
13807;SDS011;40769;51.512;5.494;2022-11-25T11:05:22;4.35;;;2.10;;
13807;SDS011;40769;51.512;5.494;2022-11-25T11:10:38;5.45;;;2.42;;
13807;SDS011;40769;51.512;5.494;2022-11-25T11:13:05;2.70;;;1.92;;
13807;SDS011;40769;51.512;5.494;2022-11-25T11:15:47;3.90;;;2.03;;
13807;SDS011;40769;51.512;5.494;2022-11-25T11:20:46;3.33;;;1.92;;
13807;SDS011;40769;51.512;5.494;2022-11-25T11:23:16;3.92;;;2.13;;
13807;SDS011;40769;51.512;5.494;2022-11-25T11:25:43;5.30;;;2.10;;
13807;SDS011;40769;51.512;5.494;2022-11-25T11:33:46;4.20;;;2.35;;
13807;SDS011;40769;51.512;5.494;2022-11-25T11:41:54;3.15;;;2.03;;
13807;SDS011;40769;51.512;5.494;2022-11-25T11:47:24;3.40;;;1.83;;
13807;SDS011;40769;51.512;5.494;2022-11-25T12:04:28;3.58;;;2.05;;
13807;SDS011;40769;51.512;5.494;2022-11-25T12:10:10;3.03;;;2.17;;
13807;SDS011;40769;51.512;5.494;2022-11-25T12:12:58;4.07;;;1.67;;
13807;SDS011;40769;51.512;5.494;2022-11-25T12:18:30;5.70;;;2.00;;
13807;SDS011;40769;51.512;5.494;2022-11-25T12:21:21;3.33;;;1.83;;
13807;SDS011;40769;51.512;5.494;2022-11-25T12:29:21;4.22;;;2.13;;
13807;SDS011;40769;51.512;5.494;2022-11-25T12:34:55;3.80;;;1.90;;
13807;SDS011;40769;51.512;5.494;2022-11-25T12:40:35;3.50;;;1.50;;
13807;SDS011;40769;51.512;5.494;2022-11-25T12:43:51;3.33;;;1.50;;
13807;SDS011;40769;51.512;5.494;2022-11-25T12:46:17;4.82;;;1.85;;
13807;SDS011;40769;51.512;5.494;2022-11-25T12:48:52;3.13;;;1.77;;
13807;SDS011;40769;51.512;5.494;2022-11-25T12:51:22;4.43;;;2.15;;
13807;SDS011;40769;51.512;5.494;2022-11-25T13:08:35;3.00;;;1.95;;
13807;SDS011;40769;51.512;5.494;2022-11-25T13:17:03;3.97;;;1.90;;
13807;SDS011;40769;51.512;5.494;2022-11-25T13:19:35;2.53;;;1.92;;
13807;SDS011;40769;51.512;5.494;2022-11-25T13:22:02;3.10;;;1.58;;
13807;SDS011;40769;51.512;5.494;2022-11-25T13:26:56;2.70;;;1.75;;
13807;SDS011;40769;51.512;5.494;2022-11-25T13:31:57;3.92;;;2.03;;
13807;SDS011;40769;51.512;5.494;2022-11-25T13:34:32;5.40;;;2.95;;
13807;SDS011;40769;51.512;5.494;2022-11-25T13:36:59;6.72;;;2.45;;
13807;SDS011;40769;51.512;5.494;2022-11-25T13:39:35;8.27;;;2.85;;
13807;SDS011;40769;51.512;5.494;2022-11-25T13:44:50;5.95;;;2.58;;
13807;SDS011;40769;51.512;5.494;2022-11-25T13:47:27;7.57;;;2.88;;
13807;SDS011;40769;51.512;5.494;2022-11-25T13:52:41;3.22;;;1.90;;
13807;SDS011;40769;51.512;5.494;2022-11-25T13:57:40;5.65;;;2.78;;
13807;SDS011;40769;51.512;5.494;2022-11-25T14:02:44;5.00;;;2.45;;
13807;SDS011;40769;51.512;5.494;2022-11-25T14:08:52;4.03;;;2.22;;
13807;SDS011;40769;51.512;5.494;2022-11-25T14:11:02;5.78;;;2.45;;
13807;SDS011;40769;51.512;5.494;2022-11-25T14:19:34;4.60;;;2.50;;
13807;SDS011;40769;51.512;5.494;2022-11-25T14:22:25;4.65;;;1.98;;
13807;SDS011;40769;51.512;5.494;2022-11-25T14:25:15;4.70;;;2.33;;
13807;SDS011;40769;51.512;5.494;2022-11-25T14:27:51;5.47;;;2.40;;
13807;SDS011;40769;51.512;5.494;2022-11-25T14:30:22;3.83;;;2.25;;
13807;SDS011;40769;51.512;5.494;2022-11-25T14:32:51;5.88;;;2.67;;
13807;SDS011;40769;51.512;5.494;2022-11-25T14:35:45;4.45;;;2.80;;
13807;SDS011;40769;51.512;5.494;2022-11-25T14:38:12;3.45;;;2.55;;
13807;SDS011;40769;51.512;5.494;2022-11-25T14:40:57;4.07;;;2.20;;
13807;SDS011;40769;51.512;5.494;2022-11-25T14:43:27;4.82;;;2.25;;
13807;SDS011;40769;51.512;5.494;2022-11-25T14:48:39;6.57;;;3.00;;
13807;SDS011;40769;51.512;5.494;2022-11-25T14:51:07;5.95;;;3.13;;
13807;SDS011;40769;51.512;5.494;2022-11-25T14:53:41;4.18;;;2.72;;
13807;SDS011;40769;51.512;5.494;2022-11-25T14:56:09;3.08;;;2.28;;
13807;SDS011;40769;51.512;5.494;2022-11-25T14:58:40;6.25;;;2.35;;
13807;SDS011;40769;51.512;5.494;2022-11-25T15:01:18;3.45;;;1.90;;
13807;SDS011;40769;51.512;5.494;2022-11-25T15:03:47;4.53;;;2.25;;
13807;SDS011;40769;51.512;5.494;2022-11-25T15:06:14;4.40;;;2.40;;
13807;SDS011;40769;51.512;5.494;2022-11-25T15:08:44;2.88;;;1.85;;
13807;SDS011;40769;51.512;5.494;2022-11-25T15:11:18;5.28;;;2.40;;
13807;SDS011;40769;51.512;5.494;2022-11-25T15:13:48;5.78;;;2.90;;
13807;SDS011;40769;51.512;5.494;2022-11-25T15:16:34;3.72;;;2.10;;
13807;SDS011;40769;51.512;5.494;2022-11-25T15:19:04;5.72;;;2.55;;
13807;SDS011;40769;51.512;5.494;2022-11-25T15:23:59;6.03;;;3.05;;
13807;SDS011;40769;51.512;5.494;2022-11-25T15:26:29;4.03;;;2.45;;
13807;SDS011;40769;51.512;5.494;2022-11-25T15:28:57;5.78;;;2.70;;
13807;SDS011;40769;51.512;5.494;2022-11-25T15:31:25;5.97;;;3.13;;
13807;SDS011;40769;51.512;5.494;2022-11-25T15:34:04;6.90;;;2.97;;
13807;SDS011;40769;51.512;5.494;2022-11-25T15:36:32;6.00;;;2.50;;
13807;SDS011;40769;51.512;5.494;2022-11-25T15:41:54;3.80;;;2.20;;
13807;SDS011;40769;51.512;5.494;2022-11-25T15:44:27;3.38;;;2.58;;
13807;SDS011;40769;51.512;5.494;2022-11-25T15:49:46;5.63;;;2.63;;
13807;SDS011;40769;51.512;5.494;2022-11-25T15:52:21;5.93;;;3.03;;
13807;SDS011;40769;51.512;5.494;2022-11-25T15:54:49;6.20;;;3.15;;
13807;SDS011;40769;51.512;5.494;2022-11-25T16:10:18;5.32;;;2.92;;
13807;SDS011;40769;51.512;5.494;2022-11-25T16:15:57;5.25;;;3.65;;
13807;SDS011;40769;51.512;5.494;2022-11-25T16:21:02;8.35;;;3.10;;
13807;SDS011;40769;51.512;5.494;2022-11-25T16:23:34;7.65;;;3.13;;
13807;SDS011;40769;51.512;5.494;2022-11-25T16:26:11;5.50;;;3.83;;
13807;SDS011;40769;51.512;5.494;2022-11-25T16:28:38;7.28;;;3.28;;
13807;SDS011;40769;51.512;5.494;2022-11-25T16:31:09;4.28;;;2.80;;
13807;SDS011;40769;51.512;5.494;2022-11-25T16:33:39;5.05;;;3.10;;
13807;SDS011;40769;51.512;5.494;2022-11-25T16:36:05;5.07;;;3.47;;
13807;SDS011;40769;51.512;5.494;2022-11-25T16:38:31;7.47;;;3.70;;
13807;SDS011;40769;51.512;5.494;2022-11-25T16:40:56;5.68;;;3.35;;
13807;SDS011;40769;51.512;5.494;2022-11-25T16:43:22;4.90;;;3.38;;
13807;SDS011;40769;51.512;5.494;2022-11-25T16:45:51;6.45;;;3.78;;
13807;SDS011;40769;51.512;5.494;2022-11-25T16:48:21;7.65;;;4.22;;
13807;SDS011;40769;51.512;5.494;2022-11-25T16:50:48;7.57;;;3.95;;
13807;SDS011;40769;51.512;5.494;2022-11-25T16:53:16;6.90;;;4.45;;
13807;SDS011;40769;51.512;5.494;2022-11-25T16:55:42;6.63;;;3.50;;
13807;SDS011;40769;51.512;5.494;2022-11-25T16:58:22;7.88;;;3.75;;
13807;SDS011;40769;51.512;5.494;2022-11-25T17:00:53;3.83;;;3.13;;
13807;SDS011;40769;51.512;5.494;2022-11-25T17:03:20;6.70;;;4.68;;
13807;SDS011;40769;51.512;5.494;2022-11-25T17:05:49;6.68;;;4.43;;
13807;SDS011;40769;51.512;5.494;2022-11-25T17:08:15;8.27;;;4.50;;
13807;SDS011;40769;51.512;5.494;2022-11-25T17:10:41;5.40;;;3.25;;
13807;SDS011;40769;51.512;5.494;2022-11-25T17:13:18;7.95;;;4.15;;
13807;SDS011;40769;51.512;5.494;2022-11-25T17:15:47;5.78;;;3.50;;
13807;SDS011;40769;51.512;5.494;2022-11-25T17:18:14;8.10;;;3.55;;
13807;SDS011;40769;51.512;5.494;2022-11-25T17:20:42;3.42;;;3.03;;
13807;SDS011;40769;51.512;5.494;2022-11-25T17:23:13;7.28;;;3.40;;
13807;SDS011;40769;51.512;5.494;2022-11-25T17:25:46;4.57;;;3.22;;
13807;SDS011;40769;51.512;5.494;2022-11-25T17:28:18;7.13;;;3.60;;
13807;SDS011;40769;51.512;5.494;2022-11-25T17:30:44;7.47;;;4.57;;
13807;SDS011;40769;51.512;5.494;2022-11-25T17:33:12;6.93;;;3.60;;
13807;SDS011;40769;51.512;5.494;2022-11-25T17:35:40;4.75;;;4.25;;
13807;SDS011;40769;51.512;5.494;2022-11-25T17:38:11;6.07;;;3.90;;
13807;SDS011;40769;51.512;5.494;2022-11-25T17:40:38;7.18;;;4.68;;
13807;SDS011;40769;51.512;5.494;2022-11-25T17:43:05;8.57;;;5.85;;
13807;SDS011;40769;51.512;5.494;2022-11-25T17:45:32;8.95;;;5.03;;
13807;SDS011;40769;51.512;5.494;2022-11-25T17:47:58;6.03;;;4.18;;
13807;SDS011;40769;51.512;5.494;2022-11-25T17:50:24;6.93;;;4.05;;
13807;SDS011;40769;51.512;5.494;2022-11-25T17:52:51;5.93;;;4.10;;